Etusivu
METAR-TAF:

METAR-TAF

Lentoasemat :

Svolværin lentoasema

Svolvær, Norja

Leveyspiiri: 68-15N, Pituuspiiri: 014-40E, korkeus merenpinnasta: 0 m

Tämänhetkinen sää

Tämä raportti tehtiin 4 tuntia ja 10 minuuttia sitten, kello 18.50 UTC
Tuuli 4 kn etelästä/lounaasta
Lämpötila 8°C
Kosteus 66%
Ilmanpaine 1025 hPa
Näkyvyys 10 km tai enemmän
ei pilviä alle 1500 m:ssä eikä cumulonimbus-pilviä

METAR: ENSH 241850Z 21004KT CAVOK 08/02 Q1025 RMK WIND 150FT 18007KT

Aika: 01:00 (23:00 UTC)

Sääennuste

Tämä raportti tehtiin 9 tuntia ja 0 minuuttia sitten, kello 14.00 UTC
Ennuste voimassa 24. päivästä klo 15 UTC - 24. päivään klo 20 UTC
Tuuli 5 kn etelästä/lounaasta
Näkyvyys 10 km tai enemmän
ei pilviä alle 1500 m:ssä eikä cumulonimbus-pilviä

TAF: ENSH 241400Z 2415/2420 20005KT CAVOK

Säähavainnot ja -ennusteet yli 4000 lentoasemalta (METAR- ja TAF-raportit).

Käytössä olevat sääasemat on merkitty karttaan keltaisilla ja punaisilla pisteillä.

Aseta hiiri pisteen päälle nähdäksesi sääaseman nimen.

Klikkaa sitten nähdäksesi säähavainnot ja -ennusteet.

Kartan vaihtaminen: klikkaa mustalla rastilla varustettuja vihreitä pisteitä, niin voit zoomata sisään; viivalla varustettua vihreää pistettä, niin voit zoomata ulos tai vihreitä nuolia, niin pääset viereisille kartoille.


METAR-TAF: